sensor_id;sensor_type;location;lat;lon;timestamp;P1;durP1;ratioP1;P2;durP2;ratioP2
4432;SDS011;2229;48.708;9.706;2022-09-02T00:01:27;2.40;;;1.43;;
4432;SDS011;2229;48.708;9.706;2022-09-02T00:03:58;3.33;;;1.87;;
4432;SDS011;2229;48.708;9.706;2022-09-02T00:06:27;1.87;;;1.43;;
4432;SDS011;2229;48.708;9.706;2022-09-02T00:08:55;1.90;;;1.40;;
4432;SDS011;2229;48.708;9.706;2022-09-02T00:11:25;2.60;;;1.80;;
4432;SDS011;2229;48.708;9.706;2022-09-02T00:13:53;3.60;;;1.50;;
4432;SDS011;2229;48.708;9.706;2022-09-02T00:16:22;2.80;;;1.97;;
4432;SDS011;2229;48.708;9.706;2022-09-02T00:18:50;2.50;;;1.40;;
4432;SDS011;2229;48.708;9.706;2022-09-02T00:21:19;1.70;;;1.40;;
4432;SDS011;2229;48.708;9.706;2022-09-02T00:23:47;1.60;;;1.07;;
4432;SDS011;2229;48.708;9.706;2022-09-02T00:26:15;2.40;;;1.50;;
4432;SDS011;2229;48.708;9.706;2022-09-02T00:28:44;3.20;;;1.37;;
4432;SDS011;2229;48.708;9.706;2022-09-02T00:31:12;2.07;;;1.27;;
4432;SDS011;2229;48.708;9.706;2022-09-02T00:33:40;4.37;;;1.83;;
4432;SDS011;2229;48.708;9.706;2022-09-02T00:36:07;2.37;;;1.63;;
4432;SDS011;2229;48.708;9.706;2022-09-02T00:38:35;3.00;;;1.53;;
4432;SDS011;2229;48.708;9.706;2022-09-02T00:41:05;2.27;;;1.33;;
4432;SDS011;2229;48.708;9.706;2022-09-02T00:43:40;3.73;;;1.63;;
4432;SDS011;2229;48.708;9.706;2022-09-02T00:46:12;2.90;;;1.60;;
4432;SDS011;2229;48.708;9.706;2022-09-02T00:48:45;1.90;;;1.33;;
4432;SDS011;2229;48.708;9.706;2022-09-02T00:51:17;2.43;;;1.33;;
4432;SDS011;2229;48.708;9.706;2022-09-02T00:53:45;2.33;;;1.80;;
4432;SDS011;2229;48.708;9.706;2022-09-02T00:56:16;6.03;;;1.60;;
4432;SDS011;2229;48.708;9.706;2022-09-02T00:58:55;2.33;;;1.63;;
4432;SDS011;2229;48.708;9.706;2022-09-02T01:01:25;2.80;;;1.70;;
4432;SDS011;2229;48.708;9.706;2022-09-02T01:03:52;6.83;;;1.80;;
4432;SDS011;2229;48.708;9.706;2022-09-02T01:06:21;1.53;;;0.97;;
4432;SDS011;2229;48.708;9.706;2022-09-02T01:08:51;1.93;;;1.27;;
4432;SDS011;2229;48.708;9.706;2022-09-02T01:11:22;2.20;;;1.00;;
4432;SDS011;2229;48.708;9.706;2022-09-02T01:13:56;1.97;;;1.50;;
4432;SDS011;2229;48.708;9.706;2022-09-02T01:16:29;7.70;;;1.50;;
4432;SDS011;2229;48.708;9.706;2022-09-02T01:19:02;1.70;;;1.20;;
4432;SDS011;2229;48.708;9.706;2022-09-02T01:21:34;5.10;;;2.00;;
4432;SDS011;2229;48.708;9.706;2022-09-02T01:24:03;2.73;;;1.30;;
4432;SDS011;2229;48.708;9.706;2022-09-02T01:26:31;2.50;;;1.47;;
4432;SDS011;2229;48.708;9.706;2022-09-02T01:28:59;3.87;;;1.87;;
4432;SDS011;2229;48.708;9.706;2022-09-02T01:31:26;1.87;;;1.60;;
4432;SDS011;2229;48.708;9.706;2022-09-02T01:33:53;3.27;;;1.80;;
4432;SDS011;2229;48.708;9.706;2022-09-02T01:36:20;2.33;;;1.33;;
4432;SDS011;2229;48.708;9.706;2022-09-02T01:38:48;3.03;;;1.63;;
4432;SDS011;2229;48.708;9.706;2022-09-02T01:41:16;2.10;;;1.20;;
4432;SDS011;2229;48.708;9.706;2022-09-02T01:43:43;3.13;;;1.40;;
4432;SDS011;2229;48.708;9.706;2022-09-02T01:46:11;1.93;;;1.30;;
4432;SDS011;2229;48.708;9.706;2022-09-02T01:48:38;3.20;;;1.80;;
4432;SDS011;2229;48.708;9.706;2022-09-02T01:51:05;2.37;;;1.60;;
4432;SDS011;2229;48.708;9.706;2022-09-02T01:53:33;2.97;;;1.80;;
4432;SDS011;2229;48.708;9.706;2022-09-02T01:56:01;3.23;;;1.30;;
4432;SDS011;2229;48.708;9.706;2022-09-02T01:58:33;2.00;;;1.50;;
4432;SDS011;2229;48.708;9.706;2022-09-02T02:01:00;2.93;;;1.40;;
4432;SDS011;2229;48.708;9.706;2022-09-02T02:03:28;1.93;;;1.27;;
4432;SDS011;2229;48.708;9.706;2022-09-02T02:05:57;7.93;;;2.30;;
4432;SDS011;2229;48.708;9.706;2022-09-02T02:08:25;6.00;;;2.13;;
4432;SDS011;2229;48.708;9.706;2022-09-02T02:10:53;2.50;;;1.53;;
4432;SDS011;2229;48.708;9.706;2022-09-02T02:13:21;3.40;;;2.03;;
4432;SDS011;2229;48.708;9.706;2022-09-02T02:15:50;2.10;;;1.50;;
4432;SDS011;2229;48.708;9.706;2022-09-02T02:18:17;3.20;;;1.63;;
4432;SDS011;2229;48.708;9.706;2022-09-02T02:20:45;2.23;;;1.60;;
4432;SDS011;2229;48.708;9.706;2022-09-02T02:23:12;1.70;;;1.23;;
4432;SDS011;2229;48.708;9.706;2022-09-02T02:25:39;3.33;;;1.70;;
4432;SDS011;2229;48.708;9.706;2022-09-02T02:28:07;2.27;;;1.53;;
4432;SDS011;2229;48.708;9.706;2022-09-02T02:30:34;2.10;;;1.37;;
4432;SDS011;2229;48.708;9.706;2022-09-02T02:33:04;8.87;;;2.07;;
4432;SDS011;2229;48.708;9.706;2022-09-02T02:35:31;3.80;;;1.77;;
4432;SDS011;2229;48.708;9.706;2022-09-02T02:37:59;3.63;;;1.60;;
4432;SDS011;2229;48.708;9.706;2022-09-02T02:40:27;5.50;;;2.00;;
4432;SDS011;2229;48.708;9.706;2022-09-02T02:42:55;2.90;;;1.60;;
4432;SDS011;2229;48.708;9.706;2022-09-02T02:45:23;3.60;;;1.60;;
4432;SDS011;2229;48.708;9.706;2022-09-02T02:47:51;2.70;;;1.83;;
4432;SDS011;2229;48.708;9.706;2022-09-02T02:50:22;3.70;;;1.93;;
4432;SDS011;2229;48.708;9.706;2022-09-02T02:52:50;2.10;;;1.27;;
4432;SDS011;2229;48.708;9.706;2022-09-02T02:55:20;5.30;;;1.57;;
4432;SDS011;2229;48.708;9.706;2022-09-02T02:57:48;8.20;;;1.90;;
4432;SDS011;2229;48.708;9.706;2022-09-02T03:00:17;4.97;;;1.70;;
4432;SDS011;2229;48.708;9.706;2022-09-02T03:02:46;1.87;;;1.33;;
4432;SDS011;2229;48.708;9.706;2022-09-02T03:05:17;2.53;;;1.63;;
4432;SDS011;2229;48.708;9.706;2022-09-02T03:07:47;3.00;;;1.90;;
4432;SDS011;2229;48.708;9.706;2022-09-02T03:10:16;2.20;;;1.50;;
4432;SDS011;2229;48.708;9.706;2022-09-02T03:12:44;2.40;;;1.60;;
4432;SDS011;2229;48.708;9.706;2022-09-02T03:15:12;2.50;;;1.70;;
4432;SDS011;2229;48.708;9.706;2022-09-02T03:17:43;2.57;;;1.77;;
4432;SDS011;2229;48.708;9.706;2022-09-02T03:20:10;2.57;;;1.40;;
4432;SDS011;2229;48.708;9.706;2022-09-02T03:22:41;2.70;;;1.80;;
4432;SDS011;2229;48.708;9.706;2022-09-02T03:25:11;2.77;;;1.80;;
4432;SDS011;2229;48.708;9.706;2022-09-02T03:27:40;1.87;;;1.23;;
4432;SDS011;2229;48.708;9.706;2022-09-02T03:30:10;3.60;;;1.90;;
4432;SDS011;2229;48.708;9.706;2022-09-02T03:32:40;3.00;;;1.80;;
4432;SDS011;2229;48.708;9.706;2022-09-02T03:35:09;1.90;;;1.30;;
4432;SDS011;2229;48.708;9.706;2022-09-02T03:37:38;4.60;;;1.77;;
4432;SDS011;2229;48.708;9.706;2022-09-02T03:40:07;4.17;;;1.80;;
4432;SDS011;2229;48.708;9.706;2022-09-02T03:42:38;2.73;;;1.67;;
4432;SDS011;2229;48.708;9.706;2022-09-02T03:45:08;3.30;;;1.83;;
4432;SDS011;2229;48.708;9.706;2022-09-02T03:47:36;2.40;;;1.70;;
4432;SDS011;2229;48.708;9.706;2022-09-02T03:50:09;3.63;;;1.80;;
4432;SDS011;2229;48.708;9.706;2022-09-02T03:52:37;4.43;;;1.60;;
4432;SDS011;2229;48.708;9.706;2022-09-02T03:55:04;2.87;;;1.80;;
4432;SDS011;2229;48.708;9.706;2022-09-02T03:57:33;2.13;;;1.50;;
4432;SDS011;2229;48.708;9.706;2022-09-02T04:00:04;2.87;;;2.00;;
4432;SDS011;2229;48.708;9.706;2022-09-02T04:02:39;2.37;;;1.60;;
4432;SDS011;2229;48.708;9.706;2022-09-02T04:05:09;3.63;;;1.57;;
4432;SDS011;2229;48.708;9.706;2022-09-02T04:07:39;2.27;;;1.37;;
4432;SDS011;2229;48.708;9.706;2022-09-02T04:10:07;2.70;;;1.60;;
4432;SDS011;2229;48.708;9.706;2022-09-02T04:12:36;4.97;;;1.87;;
4432;SDS011;2229;48.708;9.706;2022-09-02T04:15:07;2.37;;;1.50;;
4432;SDS011;2229;48.708;9.706;2022-09-02T04:21:36;3.47;;;2.03;;
4432;SDS011;2229;48.708;9.706;2022-09-02T04:24:06;3.90;;;1.50;;
4432;SDS011;2229;48.708;9.706;2022-09-02T04:26:37;4.73;;;1.93;;
4432;SDS011;2229;48.708;9.706;2022-09-02T04:29:04;3.07;;;2.03;;
4432;SDS011;2229;48.708;9.706;2022-09-02T04:31:35;5.80;;;2.90;;
4432;SDS011;2229;48.708;9.706;2022-09-02T04:34:03;4.37;;;2.07;;
4432;SDS011;2229;48.708;9.706;2022-09-02T04:36:32;4.90;;;2.27;;
4432;SDS011;2229;48.708;9.706;2022-09-02T04:39:04;5.27;;;2.57;;
4432;SDS011;2229;48.708;9.706;2022-09-02T04:41:33;4.87;;;2.57;;
4432;SDS011;2229;48.708;9.706;2022-09-02T04:44:05;6.67;;;2.60;;
4432;SDS011;2229;48.708;9.706;2022-09-02T04:46:38;3.27;;;1.77;;
4432;SDS011;2229;48.708;9.706;2022-09-02T04:49:09;3.17;;;1.73;;
4432;SDS011;2229;48.708;9.706;2022-09-02T04:51:38;4.03;;;2.00;;
4432;SDS011;2229;48.708;9.706;2022-09-02T04:54:07;2.50;;;1.50;;
4432;SDS011;2229;48.708;9.706;2022-09-02T04:56:36;2.90;;;1.63;;
4432;SDS011;2229;48.708;9.706;2022-09-02T04:59:06;3.10;;;2.07;;
4432;SDS011;2229;48.708;9.706;2022-09-02T05:01:35;2.37;;;1.33;;
4432;SDS011;2229;48.708;9.706;2022-09-02T05:04:22;2.67;;;2.00;;
4432;SDS011;2229;48.708;9.706;2022-09-02T05:06:50;2.50;;;1.57;;
4432;SDS011;2229;48.708;9.706;2022-09-02T05:09:19;2.77;;;1.60;;
4432;SDS011;2229;48.708;9.706;2022-09-02T05:11:58;4.17;;;2.37;;
4432;SDS011;2229;48.708;9.706;2022-09-02T05:14:37;2.27;;;1.33;;
4432;SDS011;2229;48.708;9.706;2022-09-02T05:17:08;3.33;;;2.30;;
4432;SDS011;2229;48.708;9.706;2022-09-02T05:19:39;2.33;;;1.33;;
4432;SDS011;2229;48.708;9.706;2022-09-02T05:22:06;4.17;;;2.47;;
4432;SDS011;2229;48.708;9.706;2022-09-02T05:24:37;5.43;;;2.07;;
4432;SDS011;2229;48.708;9.706;2022-09-02T05:27:09;4.03;;;2.00;;
4432;SDS011;2229;48.708;9.706;2022-09-02T05:29:37;3.10;;;1.67;;
4432;SDS011;2229;48.708;9.706;2022-09-02T05:32:06;2.30;;;1.80;;
4432;SDS011;2229;48.708;9.706;2022-09-02T05:34:37;4.33;;;1.53;;
4432;SDS011;2229;48.708;9.706;2022-09-02T05:37:04;4.03;;;2.27;;
4432;SDS011;2229;48.708;9.706;2022-09-02T05:39:33;2.80;;;1.60;;
4432;SDS011;2229;48.708;9.706;2022-09-02T05:42:03;2.40;;;1.70;;
4432;SDS011;2229;48.708;9.706;2022-09-02T05:44:31;3.30;;;1.90;;
4432;SDS011;2229;48.708;9.706;2022-09-02T05:47:01;2.53;;;1.90;;
4432;SDS011;2229;48.708;9.706;2022-09-02T05:49:29;2.93;;;2.10;;
4432;SDS011;2229;48.708;9.706;2022-09-02T05:52:15;6.23;;;2.33;;
4432;SDS011;2229;48.708;9.706;2022-09-02T05:54:46;2.20;;;1.50;;
4432;SDS011;2229;48.708;9.706;2022-09-02T05:57:36;7.80;;;2.03;;
4432;SDS011;2229;48.708;9.706;2022-09-02T06:00:07;2.53;;;1.50;;
4432;SDS011;2229;48.708;9.706;2022-09-02T06:02:41;3.47;;;1.63;;
4432;SDS011;2229;48.708;9.706;2022-09-02T06:05:19;2.03;;;1.40;;
4432;SDS011;2229;48.708;9.706;2022-09-02T06:07:54;2.50;;;1.63;;
4432;SDS011;2229;48.708;9.706;2022-09-02T06:10:22;5.10;;;1.60;;
4432;SDS011;2229;48.708;9.706;2022-09-02T06:12:51;2.83;;;1.83;;
4432;SDS011;2229;48.708;9.706;2022-09-02T06:15:21;2.90;;;1.50;;
4432;SDS011;2229;48.708;9.706;2022-09-02T06:17:53;3.20;;;2.10;;
4432;SDS011;2229;48.708;9.706;2022-09-02T06:20:25;2.30;;;1.43;;
4432;SDS011;2229;48.708;9.706;2022-09-02T06:22:55;3.50;;;1.90;;
4432;SDS011;2229;48.708;9.706;2022-09-02T06:25:23;2.73;;;1.70;;
4432;SDS011;2229;48.708;9.706;2022-09-02T06:27:50;2.30;;;1.40;;
4432;SDS011;2229;48.708;9.706;2022-09-02T06:30:18;2.97;;;1.80;;
4432;SDS011;2229;48.708;9.706;2022-09-02T06:32:45;3.30;;;1.60;;
4432;SDS011;2229;48.708;9.706;2022-09-02T06:35:14;7.87;;;2.23;;
4432;SDS011;2229;48.708;9.706;2022-09-02T06:37:41;2.30;;;1.40;;
4432;SDS011;2229;48.708;9.706;2022-09-02T06:40:10;1.97;;;1.30;;
4432;SDS011;2229;48.708;9.706;2022-09-02T06:42:39;3.97;;;1.77;;
4432;SDS011;2229;48.708;9.706;2022-09-02T06:45:19;12.80;;;1.37;;
4432;SDS011;2229;48.708;9.706;2022-09-02T06:47:49;1.53;;;1.00;;
4432;SDS011;2229;48.708;9.706;2022-09-02T06:50:17;2.27;;;1.43;;
4432;SDS011;2229;48.708;9.706;2022-09-02T06:52:45;2.70;;;1.60;;
4432;SDS011;2229;48.708;9.706;2022-09-02T06:55:14;3.77;;;1.60;;
4432;SDS011;2229;48.708;9.706;2022-09-02T06:57:42;3.03;;;1.30;;
4432;SDS011;2229;48.708;9.706;2022-09-02T07:00:12;4.77;;;1.50;;
4432;SDS011;2229;48.708;9.706;2022-09-02T07:02:41;1.97;;;1.20;;
4432;SDS011;2229;48.708;9.706;2022-09-02T07:05:31;1.83;;;1.10;;
4432;SDS011;2229;48.708;9.706;2022-09-02T07:07:58;1.87;;;1.20;;
4432;SDS011;2229;48.708;9.706;2022-09-02T07:10:27;3.00;;;1.77;;
4432;SDS011;2229;48.708;9.706;2022-09-02T07:12:55;2.07;;;1.33;;
4432;SDS011;2229;48.708;9.706;2022-09-02T07:15:22;2.40;;;0.97;;
4432;SDS011;2229;48.708;9.706;2022-09-02T07:17:50;2.40;;;1.20;;
4432;SDS011;2229;48.708;9.706;2022-09-02T07:20:31;2.07;;;1.40;;
4432;SDS011;2229;48.708;9.706;2022-09-02T07:23:00;2.47;;;1.67;;
4432;SDS011;2229;48.708;9.706;2022-09-02T07:25:32;2.00;;;1.50;;
4432;SDS011;2229;48.708;9.706;2022-09-02T07:27:59;3.93;;;1.93;;
4432;SDS011;2229;48.708;9.706;2022-09-02T07:30:30;3.03;;;1.60;;
4432;SDS011;2229;48.708;9.706;2022-09-02T07:33:04;2.40;;;1.60;;
4432;SDS011;2229;48.708;9.706;2022-09-02T07:35:33;1.43;;;0.97;;
4432;SDS011;2229;48.708;9.706;2022-09-02T07:38:01;2.60;;;1.50;;
4432;SDS011;2229;48.708;9.706;2022-09-02T07:40:30;2.23;;;1.30;;
4432;SDS011;2229;48.708;9.706;2022-09-02T07:43:00;2.40;;;1.60;;
4432;SDS011;2229;48.708;9.706;2022-09-02T07:45:27;3.33;;;1.00;;
4432;SDS011;2229;48.708;9.706;2022-09-02T07:47:55;1.60;;;1.27;;
4432;SDS011;2229;48.708;9.706;2022-09-02T07:50:23;1.90;;;1.23;;
4432;SDS011;2229;48.708;9.706;2022-09-02T07:52:52;3.33;;;0.90;;
4432;SDS011;2229;48.708;9.706;2022-09-02T07:55:21;3.30;;;1.70;;
4432;SDS011;2229;48.708;9.706;2022-09-02T07:57:49;2.93;;;1.20;;
4432;SDS011;2229;48.708;9.706;2022-09-02T08:00:20;3.63;;;1.27;;
4432;SDS011;2229;48.708;9.706;2022-09-02T08:02:53;2.70;;;1.47;;
4432;SDS011;2229;48.708;9.706;2022-09-02T08:05:26;2.13;;;1.33;;
4432;SDS011;2229;48.708;9.706;2022-09-02T08:07:54;3.87;;;1.70;;
4432;SDS011;2229;48.708;9.706;2022-09-02T08:10:21;1.60;;;1.00;;
4432;SDS011;2229;48.708;9.706;2022-09-02T08:12:51;1.33;;;0.90;;
4432;SDS011;2229;48.708;9.706;2022-09-02T08:15:20;1.70;;;1.00;;
4432;SDS011;2229;48.708;9.706;2022-09-02T08:17:47;2.00;;;1.30;;
4432;SDS011;2229;48.708;9.706;2022-09-02T08:20:15;4.30;;;1.23;;
4432;SDS011;2229;48.708;9.706;2022-09-02T08:22:43;4.00;;;1.00;;
4432;SDS011;2229;48.708;9.706;2022-09-02T08:25:10;2.07;;;1.10;;
4432;SDS011;2229;48.708;9.706;2022-09-02T08:27:37;3.33;;;1.20;;
4432;SDS011;2229;48.708;9.706;2022-09-02T08:30:06;2.20;;;1.27;;
4432;SDS011;2229;48.708;9.706;2022-09-02T08:32:36;2.53;;;0.90;;
4432;SDS011;2229;48.708;9.706;2022-09-02T08:35:05;1.50;;;0.90;;
4432;SDS011;2229;48.708;9.706;2022-09-02T08:37:33;1.50;;;1.10;;
4432;SDS011;2229;48.708;9.706;2022-09-02T08:40:03;2.73;;;0.90;;
4432;SDS011;2229;48.708;9.706;2022-09-02T08:42:40;1.70;;;0.90;;
4432;SDS011;2229;48.708;9.706;2022-09-02T08:45:11;2.40;;;1.03;;
4432;SDS011;2229;48.708;9.706;2022-09-02T08:47:46;2.53;;;1.20;;
4432;SDS011;2229;48.708;9.706;2022-09-02T08:50:17;1.87;;;0.90;;
4432;SDS011;2229;48.708;9.706;2022-09-02T08:52:47;1.43;;;0.80;;
4432;SDS011;2229;48.708;9.706;2022-09-02T08:55:22;2.70;;;1.03;;
4432;SDS011;2229;48.708;9.706;2022-09-02T08:57:53;1.60;;;0.90;;
4432;SDS011;2229;48.708;9.706;2022-09-02T09:00:21;10.60;;;1.17;;
4432;SDS011;2229;48.708;9.706;2022-09-02T09:02:53;1.33;;;0.83;;
4432;SDS011;2229;48.708;9.706;2022-09-02T09:05:30;4.33;;;1.07;;
4432;SDS011;2229;48.708;9.706;2022-09-02T09:08:09;3.10;;;1.10;;
4432;SDS011;2229;48.708;9.706;2022-09-02T09:10:44;1.70;;;0.73;;
4432;SDS011;2229;48.708;9.706;2022-09-02T09:16:26;2.20;;;0.83;;
4432;SDS011;2229;48.708;9.706;2022-09-02T09:19:00;1.50;;;1.00;;
4432;SDS011;2229;48.708;9.706;2022-09-02T09:21:33;2.40;;;1.50;;
4432;SDS011;2229;48.708;9.706;2022-09-02T09:24:01;1.40;;;0.90;;
4432;SDS011;2229;48.708;9.706;2022-09-02T09:26:34;2.90;;;1.00;;
4432;SDS011;2229;48.708;9.706;2022-09-02T09:29:04;1.73;;;0.77;;
4432;SDS011;2229;48.708;9.706;2022-09-02T09:31:55;2.57;;;1.43;;
4432;SDS011;2229;48.708;9.706;2022-09-02T09:34:45;1.87;;;0.70;;
4432;SDS011;2229;48.708;9.706;2022-09-02T09:37:27;2.07;;;1.03;;
4432;SDS011;2229;48.708;9.706;2022-09-02T09:39:56;1.30;;;0.80;;
4432;SDS011;2229;48.708;9.706;2022-09-02T09:42:30;2.83;;;1.00;;
4432;SDS011;2229;48.708;9.706;2022-09-02T09:45:08;1.80;;;1.10;;
4432;SDS011;2229;48.708;9.706;2022-09-02T09:47:44;1.50;;;0.60;;
4432;SDS011;2229;48.708;9.706;2022-09-02T09:50:38;3.60;;;1.30;;
4432;SDS011;2229;48.708;9.706;2022-09-02T09:55:53;1.37;;;0.70;;
4432;SDS011;2229;48.708;9.706;2022-09-02T09:58:22;2.93;;;0.67;;
4432;SDS011;2229;48.708;9.706;2022-09-02T10:00:52;1.23;;;0.73;;
4432;SDS011;2229;48.708;9.706;2022-09-02T10:03:22;1.87;;;1.03;;
4432;SDS011;2229;48.708;9.706;2022-09-02T10:05:53;1.67;;;0.63;;
4432;SDS011;2229;48.708;9.706;2022-09-02T10:08:23;3.80;;;0.93;;
4432;SDS011;2229;48.708;9.706;2022-09-02T10:10:56;2.40;;;0.70;;
4432;SDS011;2229;48.708;9.706;2022-09-02T10:13:25;2.03;;;0.90;;
4432;SDS011;2229;48.708;9.706;2022-09-02T10:15:59;1.60;;;0.70;;
4432;SDS011;2229;48.708;9.706;2022-09-02T10:18:37;1.63;;;1.03;;
4432;SDS011;2229;48.708;9.706;2022-09-02T10:21:12;1.40;;;0.70;;
4432;SDS011;2229;48.708;9.706;2022-09-02T10:23:54;1.40;;;0.70;;
4432;SDS011;2229;48.708;9.706;2022-09-02T10:26:31;1.60;;;0.70;;
4432;SDS011;2229;48.708;9.706;2022-09-02T10:32:02;5.60;;;1.13;;
4432;SDS011;2229;48.708;9.706;2022-09-02T10:34:55;1.20;;;0.70;;
4432;SDS011;2229;48.708;9.706;2022-09-02T10:37:34;3.30;;;1.20;;
4432;SDS011;2229;48.708;9.706;2022-09-02T10:40:09;2.87;;;0.73;;
4432;SDS011;2229;48.708;9.706;2022-09-02T10:42:42;1.20;;;0.70;;
4432;SDS011;2229;48.708;9.706;2022-09-02T10:45:21;1.10;;;0.60;;
4432;SDS011;2229;48.708;9.706;2022-09-02T10:47:52;1.63;;;0.70;;
4432;SDS011;2229;48.708;9.706;2022-09-02T10:50:34;1.90;;;0.80;;
4432;SDS011;2229;48.708;9.706;2022-09-02T10:53:15;2.43;;;1.37;;
4432;SDS011;2229;48.708;9.706;2022-09-02T10:55:55;2.50;;;0.70;;
4432;SDS011;2229;48.708;9.706;2022-09-02T10:58:41;4.47;;;0.87;;
4432;SDS011;2229;48.708;9.706;2022-09-02T11:01:15;2.13;;;0.90;;
4432;SDS011;2229;48.708;9.706;2022-09-02T11:03:50;1.97;;;0.60;;
4432;SDS011;2229;48.708;9.706;2022-09-02T11:06:25;2.50;;;0.70;;
4432;SDS011;2229;48.708;9.706;2022-09-02T11:08:56;1.87;;;0.67;;
4432;SDS011;2229;48.708;9.706;2022-09-02T11:11:32;1.73;;;0.80;;
4432;SDS011;2229;48.708;9.706;2022-09-02T11:14:14;2.03;;;0.77;;
4432;SDS011;2229;48.708;9.706;2022-09-02T11:16:48;1.50;;;0.63;;
4432;SDS011;2229;48.708;9.706;2022-09-02T11:19:21;1.20;;;0.50;;
4432;SDS011;2229;48.708;9.706;2022-09-02T11:21:55;1.70;;;0.70;;
4432;SDS011;2229;48.708;9.706;2022-09-02T11:24:29;3.00;;;0.80;;
4432;SDS011;2229;48.708;9.706;2022-09-02T11:27:02;1.20;;;0.50;;
4432;SDS011;2229;48.708;9.706;2022-09-02T11:29:37;1.20;;;0.63;;
4432;SDS011;2229;48.708;9.706;2022-09-02T11:32:13;1.37;;;0.77;;
4432;SDS011;2229;48.708;9.706;2022-09-02T11:34:45;1.57;;;0.80;;
4432;SDS011;2229;48.708;9.706;2022-09-02T11:37:23;1.63;;;0.60;;
4432;SDS011;2229;48.708;9.706;2022-09-02T11:39:58;1.63;;;0.73;;
4432;SDS011;2229;48.708;9.706;2022-09-02T11:42:38;2.93;;;0.83;;
4432;SDS011;2229;48.708;9.706;2022-09-02T11:51:31;1.20;;;0.67;;
4432;SDS011;2229;48.708;9.706;2022-09-02T11:54:13;1.30;;;0.80;;
4432;SDS011;2229;48.708;9.706;2022-09-02T11:56:45;1.73;;;0.93;;
4432;SDS011;2229;48.708;9.706;2022-09-02T11:59:19;1.63;;;0.90;;
4432;SDS011;2229;48.708;9.706;2022-09-02T12:01:49;3.10;;;1.00;;
4432;SDS011;2229;48.708;9.706;2022-09-02T12:04:19;1.20;;;0.70;;
4432;SDS011;2229;48.708;9.706;2022-09-02T12:07:20;2.43;;;1.00;;
4432;SDS011;2229;48.708;9.706;2022-09-02T12:09:51;1.67;;;0.90;;
4432;SDS011;2229;48.708;9.706;2022-09-02T12:15:29;1.70;;;0.70;;
4432;SDS011;2229;48.708;9.706;2022-09-02T12:18:24;9.10;;;0.90;;
4432;SDS011;2229;48.708;9.706;2022-09-02T12:29:36;3.87;;;1.17;;
4432;SDS011;2229;48.708;9.706;2022-09-02T12:32:04;1.30;;;0.70;;
4432;SDS011;2229;48.708;9.706;2022-09-02T12:40:25;1.77;;;0.60;;
4432;SDS011;2229;48.708;9.706;2022-09-02T12:42:58;2.63;;;1.40;;
4432;SDS011;2229;48.708;9.706;2022-09-02T12:45:31;1.63;;;0.73;;
4432;SDS011;2229;48.708;9.706;2022-09-02T12:48:00;2.80;;;1.23;;
4432;SDS011;2229;48.708;9.706;2022-09-02T12:50:50;2.23;;;1.03;;
4432;SDS011;2229;48.708;9.706;2022-09-02T12:56:06;2.20;;;1.00;;
4432;SDS011;2229;48.708;9.706;2022-09-02T12:58:46;3.37;;;1.00;;
4432;SDS011;2229;48.708;9.706;2022-09-02T13:01:17;1.30;;;0.60;;
4432;SDS011;2229;48.708;9.706;2022-09-02T13:03:54;3.87;;;0.77;;
4432;SDS011;2229;48.708;9.706;2022-09-02T13:06:42;2.17;;;0.80;;
4432;SDS011;2229;48.708;9.706;2022-09-02T13:09:39;1.97;;;0.93;;
4432;SDS011;2229;48.708;9.706;2022-09-02T13:12:47;1.40;;;0.80;;
4432;SDS011;2229;48.708;9.706;2022-09-02T13:15:40;1.40;;;0.80;;
4432;SDS011;2229;48.708;9.706;2022-09-02T13:21:33;4.10;;;1.27;;
4432;SDS011;2229;48.708;9.706;2022-09-02T13:24:22;1.77;;;0.60;;
4432;SDS011;2229;48.708;9.706;2022-09-02T13:27:09;1.40;;;0.70;;
4432;SDS011;2229;48.708;9.706;2022-09-02T13:30:02;2.13;;;1.20;;
4432;SDS011;2229;48.708;9.706;2022-09-02T13:32:33;6.03;;;1.17;;
4432;SDS011;2229;48.708;9.706;2022-09-02T13:35:02;1.30;;;0.60;;
4432;SDS011;2229;48.708;9.706;2022-09-02T13:37:34;1.87;;;1.00;;
4432;SDS011;2229;48.708;9.706;2022-09-02T13:40:04;1.53;;;0.70;;
4432;SDS011;2229;48.708;9.706;2022-09-02T13:42:45;2.30;;;1.10;;
4432;SDS011;2229;48.708;9.706;2022-09-02T13:45:14;1.50;;;0.87;;
4432;SDS011;2229;48.708;9.706;2022-09-02T13:47:43;1.40;;;0.67;;
4432;SDS011;2229;48.708;9.706;2022-09-02T13:50:12;1.93;;;0.97;;
4432;SDS011;2229;48.708;9.706;2022-09-02T13:52:44;1.53;;;0.70;;
4432;SDS011;2229;48.708;9.706;2022-09-02T13:55:14;1.20;;;0.67;;
4432;SDS011;2229;48.708;9.706;2022-09-02T13:57:47;1.10;;;0.60;;
4432;SDS011;2229;48.708;9.706;2022-09-02T14:00:25;1.50;;;0.80;;
4432;SDS011;2229;48.708;9.706;2022-09-02T14:02:56;2.23;;;1.30;;
4432;SDS011;2229;48.708;9.706;2022-09-02T14:05:25;1.20;;;0.70;;
4432;SDS011;2229;48.708;9.706;2022-09-02T14:07:55;2.83;;;1.63;;
4432;SDS011;2229;48.708;9.706;2022-09-02T14:10:25;1.17;;;0.50;;
4432;SDS011;2229;48.708;9.706;2022-09-02T14:12:54;1.50;;;0.60;;
4432;SDS011;2229;48.708;9.706;2022-09-02T14:15:23;1.50;;;0.70;;
4432;SDS011;2229;48.708;9.706;2022-09-02T14:18:11;1.43;;;0.87;;
4432;SDS011;2229;48.708;9.706;2022-09-02T14:20:51;1.50;;;0.73;;
4432;SDS011;2229;48.708;9.706;2022-09-02T14:23:23;1.43;;;0.70;;
4432;SDS011;2229;48.708;9.706;2022-09-02T14:25:53;3.63;;;0.97;;
4432;SDS011;2229;48.708;9.706;2022-09-02T14:28:22;2.17;;;1.00;;
4432;SDS011;2229;48.708;9.706;2022-09-02T14:30:55;1.10;;;0.50;;
4432;SDS011;2229;48.708;9.706;2022-09-02T14:33:38;1.10;;;0.60;;
4432;SDS011;2229;48.708;9.706;2022-09-02T14:36:07;1.63;;;0.80;;
4432;SDS011;2229;48.708;9.706;2022-09-02T14:38:49;3.10;;;0.73;;
4432;SDS011;2229;48.708;9.706;2022-09-02T14:41:19;2.57;;;0.80;;
4432;SDS011;2229;48.708;9.706;2022-09-02T14:43:49;2.93;;;0.80;;
4432;SDS011;2229;48.708;9.706;2022-09-02T14:46:22;1.40;;;0.77;;
4432;SDS011;2229;48.708;9.706;2022-09-02T14:48:53;1.20;;;0.63;;
4432;SDS011;2229;48.708;9.706;2022-09-02T14:51:29;1.00;;;0.50;;
4432;SDS011;2229;48.708;9.706;2022-09-02T14:54:01;1.77;;;0.80;;
4432;SDS011;2229;48.708;9.706;2022-09-02T14:56:45;1.57;;;0.60;;
4432;SDS011;2229;48.708;9.706;2022-09-02T14:59:14;1.20;;;0.60;;
4432;SDS011;2229;48.708;9.706;2022-09-02T15:01:41;1.40;;;0.80;;
4432;SDS011;2229;48.708;9.706;2022-09-02T15:04:12;3.77;;;0.80;;
4432;SDS011;2229;48.708;9.706;2022-09-02T15:06:40;1.60;;;0.90;;
4432;SDS011;2229;48.708;9.706;2022-09-02T15:09:08;1.90;;;0.80;;
4432;SDS011;2229;48.708;9.706;2022-09-02T15:11:41;1.30;;;0.60;;
4432;SDS011;2229;48.708;9.706;2022-09-02T15:14:10;1.23;;;0.63;;
4432;SDS011;2229;48.708;9.706;2022-09-02T15:16:37;1.33;;;0.70;;
4432;SDS011;2229;48.708;9.706;2022-09-02T15:19:04;1.50;;;0.60;;
4432;SDS011;2229;48.708;9.706;2022-09-02T15:21:31;1.60;;;0.73;;
4432;SDS011;2229;48.708;9.706;2022-09-02T15:23:59;2.83;;;0.70;;
4432;SDS011;2229;48.708;9.706;2022-09-02T15:26:27;1.13;;;0.60;;
4432;SDS011;2229;48.708;9.706;2022-09-02T15:28:54;1.30;;;0.80;;
4432;SDS011;2229;48.708;9.706;2022-09-02T15:31:22;1.37;;;0.67;;
4432;SDS011;2229;48.708;9.706;2022-09-02T15:33:50;2.33;;;0.87;;
4432;SDS011;2229;48.708;9.706;2022-09-02T15:36:18;1.27;;;0.67;;
4432;SDS011;2229;48.708;9.706;2022-09-02T15:38:45;1.50;;;0.83;;
4432;SDS011;2229;48.708;9.706;2022-09-02T15:41:34;5.90;;;0.90;;
4432;SDS011;2229;48.708;9.706;2022-09-02T15:44:04;1.30;;;0.70;;
4432;SDS011;2229;48.708;9.706;2022-09-02T15:46:34;1.47;;;0.70;;
4432;SDS011;2229;48.708;9.706;2022-09-02T15:49:03;1.43;;;0.77;;
4432;SDS011;2229;48.708;9.706;2022-09-02T15:51:32;1.50;;;0.97;;
4432;SDS011;2229;48.708;9.706;2022-09-02T15:54:00;1.60;;;0.70;;
4432;SDS011;2229;48.708;9.706;2022-09-02T15:56:30;9.20;;;0.80;;
4432;SDS011;2229;48.708;9.706;2022-09-02T15:59:00;1.83;;;0.70;;
4432;SDS011;2229;48.708;9.706;2022-09-02T16:01:29;1.63;;;0.70;;
4432;SDS011;2229;48.708;9.706;2022-09-02T16:03:58;1.60;;;0.90;;
4432;SDS011;2229;48.708;9.706;2022-09-02T16:06:42;1.87;;;0.83;;
4432;SDS011;2229;48.708;9.706;2022-09-02T16:09:14;1.53;;;0.90;;
4432;SDS011;2229;48.708;9.706;2022-09-02T16:11:43;1.70;;;0.83;;
4432;SDS011;2229;48.708;9.706;2022-09-02T16:14:13;1.40;;;0.67;;
4432;SDS011;2229;48.708;9.706;2022-09-02T16:16:40;1.20;;;0.60;;
4432;SDS011;2229;48.708;9.706;2022-09-02T16:19:10;1.20;;;0.70;;
4432;SDS011;2229;48.708;9.706;2022-09-02T16:21:38;1.63;;;0.90;;
4432;SDS011;2229;48.708;9.706;2022-09-02T16:24:06;1.10;;;0.50;;
4432;SDS011;2229;48.708;9.706;2022-09-02T16:26:34;1.87;;;1.20;;